createdAt,value
2019-01-11T00:00:32.748Z,4.13
2019-01-11T00:02:59.928Z,4.47
2019-01-11T00:05:27.158Z,3.50
2019-01-11T00:07:54.330Z,3.53
2019-01-11T00:10:21.591Z,3.10
2019-01-11T00:15:05.537Z,3.13
2019-01-11T00:17:32.810Z,3.20
2019-01-11T00:20:03.742Z,3.07
2019-01-11T00:22:29.707Z,3.27
2019-01-11T00:24:56.955Z,3.60
2019-01-11T00:27:24.073Z,3.20
2019-01-11T00:29:51.335Z,3.33
2019-01-11T00:32:18.467Z,3.60
2019-01-11T00:34:45.615Z,3.07
2019-01-11T00:37:12.849Z,3.30
2019-01-11T00:39:40.002Z,3.40
2019-01-11T00:42:07.267Z,3.53
2019-01-11T00:44:34.511Z,3.43
2019-01-11T00:47:01.737Z,3.43
2019-01-11T00:49:28.955Z,3.77
2019-01-11T00:51:56.085Z,3.80
2019-01-11T00:54:23.309Z,3.93
2019-01-11T00:56:50.463Z,3.70
2019-01-11T00:59:17.699Z,4.07
2019-01-11T01:01:44.959Z,4.20
2019-01-11T01:04:12.211Z,4.07
2019-01-11T01:06:39.317Z,3.77
2019-01-11T01:09:08.034Z,3.53
2019-01-11T01:11:35.362Z,3.50
2019-01-11T01:14:02.627Z,3.83
2019-01-11T01:16:29.965Z,3.57
2019-01-11T01:18:57.113Z,3.60
2019-01-11T01:21:24.333Z,3.67
2019-01-11T01:23:51.585Z,3.60
2019-01-11T01:26:18.814Z,3.70
2019-01-11T01:28:46.080Z,3.30
2019-01-11T01:31:13.302Z,3.30
2019-01-11T01:33:40.455Z,3.37
2019-01-11T01:36:07.579Z,3.63
2019-01-11T01:38:34.732Z,3.50
2019-01-11T01:41:01.970Z,3.40
2019-01-11T01:43:29.226Z,3.30
2019-01-11T01:45:56.456Z,3.40
2019-01-11T01:48:26.222Z,3.60
2019-01-11T01:50:53.464Z,3.60
2019-01-11T01:53:20.696Z,3.70
2019-01-11T01:55:47.860Z,3.50
2019-01-11T01:58:15.099Z,3.47
2019-01-11T02:00:42.349Z,3.27
2019-01-11T02:03:09.476Z,3.23
2019-01-11T02:05:36.732Z,3.27
2019-01-11T02:08:04.034Z,3.43
2019-01-11T02:10:31.151Z,3.17
2019-01-11T02:12:58.414Z,3.30
2019-01-11T02:15:25.654Z,3.30
2019-01-11T02:17:52.813Z,3.30
2019-01-11T02:20:20.055Z,3.10
2019-01-11T02:22:47.201Z,3.03
2019-01-11T02:25:14.696Z,2.87
2019-01-11T02:27:41.957Z,3.00
2019-01-11T02:30:12.899Z,3.20
2019-01-11T02:32:40.163Z,3.00
2019-01-11T02:35:07.486Z,2.90
2019-01-11T02:37:34.712Z,3.10
2019-01-11T02:40:02.005Z,2.97
2019-01-11T02:42:29.326Z,2.70
2019-01-11T02:44:56.607Z,3.20
2019-01-11T02:47:23.839Z,3.03
2019-01-11T02:49:50.989Z,3.20
2019-01-11T02:52:18.133Z,3.33
2019-01-11T02:54:45.283Z,3.30
2019-01-11T02:57:12.507Z,3.37
2019-01-11T02:59:39.626Z,3.00
2019-01-11T03:02:06.865Z,3.13
2019-01-11T03:04:34.014Z,3.20
2019-01-11T03:07:01.149Z,3.20
2019-01-11T03:09:28.310Z,3.27
2019-01-11T03:11:55.637Z,3.60
2019-01-11T03:14:22.811Z,3.27
2019-01-11T03:16:49.945Z,3.30
2019-01-11T03:19:17.193Z,3.60
2019-01-11T03:21:44.433Z,3.27
2019-01-11T03:24:11.657Z,3.37
2019-01-11T03:26:38.932Z,3.40
2019-01-11T03:29:06.072Z,3.13
2019-01-11T03:31:36.102Z,3.20
2019-01-11T03:34:03.772Z,3.50
2019-01-11T03:36:31.023Z,3.63
2019-01-11T03:38:58.258Z,3.30
2019-01-11T03:41:25.810Z,3.83
2019-01-11T03:43:53.060Z,3.30
2019-01-11T03:46:20.334Z,3.27
2019-01-11T03:48:47.573Z,3.43
2019-01-11T03:51:14.710Z,3.53
2019-01-11T03:53:41.906Z,3.50
2019-01-11T03:56:09.161Z,3.43
2019-01-11T03:58:36.301Z,3.77
2019-01-11T04:01:03.680Z,3.23
2019-01-11T04:03:30.896Z,3.50
2019-01-11T04:05:58.044Z,3.17
2019-01-11T04:08:25.276Z,3.23
2019-01-11T04:10:52.613Z,3.30
2019-01-11T04:13:19.772Z,3.27
2019-01-11T04:15:47.012Z,3.40
2019-01-11T04:18:29.953Z,3.53
2019-01-11T04:20:57.182Z,3.57
2019-01-11T04:23:24.447Z,3.30
2019-01-11T04:25:51.577Z,3.43
2019-01-11T04:28:18.728Z,3.80
2019-01-11T04:30:45.967Z,4.10
2019-01-11T04:33:13.235Z,3.70
2019-01-11T04:35:40.367Z,3.70
2019-01-11T04:38:07.527Z,3.70
2019-01-11T04:40:34.700Z,4.07
2019-01-11T04:43:02.032Z,4.13
2019-01-11T04:45:29.160Z,3.67
2019-01-11T04:47:56.422Z,3.70
2019-01-11T04:50:23.581Z,3.90
2019-01-11T04:52:50.820Z,4.23
2019-01-11T04:55:18.088Z,3.90
2019-01-11T04:57:45.331Z,5.10
2019-01-11T05:00:15.819Z,3.90
2019-01-11T05:02:43.048Z,4.20
2019-01-11T05:05:10.301Z,3.83
2019-01-11T05:07:37.518Z,4.00
2019-01-11T05:10:05.125Z,4.53
2019-01-11T05:12:32.251Z,4.03
2019-01-11T05:14:59.528Z,4.30
2019-01-11T05:17:26.752Z,3.93
2019-01-11T05:19:53.995Z,4.13
2019-01-11T05:22:21.145Z,4.03
2019-01-11T05:24:48.263Z,4.40
2019-01-11T05:27:15.513Z,3.83
2019-01-11T05:29:42.765Z,4.00
2019-01-11T05:32:10.021Z,4.40
2019-01-11T05:34:37.138Z,4.30
2019-01-11T05:37:04.344Z,4.17
2019-01-11T05:39:31.495Z,4.10
2019-01-11T05:41:58.607Z,4.47
2019-01-11T05:44:25.752Z,4.80
2019-01-11T05:46:52.909Z,4.40
2019-01-11T05:49:20.146Z,4.00
2019-01-11T05:51:47.386Z,4.73
2019-01-11T05:54:14.622Z,4.37
2019-01-11T05:56:41.778Z,3.90
2019-01-11T05:59:09.586Z,4.17
2019-01-11T06:01:36.819Z,4.30
2019-01-11T06:04:23.411Z,4.10
2019-01-11T06:07:06.940Z,4.07
2019-01-11T06:09:34.145Z,4.73
2019-01-11T06:12:01.300Z,4.30
2019-01-11T06:14:28.459Z,4.60
2019-01-11T06:16:55.718Z,4.30
2019-01-11T06:19:22.881Z,4.20
2019-01-11T06:21:50.095Z,4.27
2019-01-11T06:24:17.347Z,4.67
2019-01-11T06:26:44.577Z,4.30
2019-01-11T06:29:11.837Z,3.97
2019-01-11T06:31:39.113Z,4.23
2019-01-11T06:34:06.238Z,4.40
2019-01-11T06:36:33.403Z,4.20
2019-01-11T06:39:00.547Z,4.73
2019-01-11T06:41:37.047Z,4.03
2019-01-11T06:44:04.202Z,4.03
2019-01-11T06:46:31.483Z,4.37
2019-01-11T06:48:58.741Z,4.70
2019-01-11T06:51:26.025Z,4.30
2019-01-11T06:53:53.290Z,4.30
2019-01-11T06:56:20.536Z,4.10
2019-01-11T06:58:47.769Z,3.83
2019-01-11T07:01:14.906Z,3.97
2019-01-11T07:03:42.132Z,4.47
2019-01-11T07:06:09.402Z,4.07
2019-01-11T07:08:36.631Z,4.33
2019-01-11T07:11:03.888Z,4.17
2019-01-11T07:13:31.170Z,4.57
2019-01-11T07:15:58.339Z,4.33
2019-01-11T07:18:25.566Z,4.30
2019-01-11T07:20:52.817Z,4.50
2019-01-11T07:23:20.037Z,4.30
2019-01-11T07:25:47.794Z,3.93
2019-01-11T07:28:15.276Z,5.33
2019-01-11T07:30:59.443Z,4.17
2019-01-11T07:33:26.702Z,3.90
2019-01-11T07:36:04.882Z,4.37
2019-01-11T07:38:32.174Z,3.83
2019-01-11T07:40:59.415Z,4.90
2019-01-11T07:43:26.701Z,4.37
2019-01-11T07:45:53.946Z,3.77
2019-01-11T07:48:21.182Z,4.10
2019-01-11T07:50:49.452Z,4.53
2019-01-11T07:53:16.764Z,4.27
2019-01-11T07:55:43.935Z,4.27
2019-01-11T07:58:11.168Z,3.90
2019-01-11T08:00:38.414Z,4.40
2019-01-11T08:03:05.671Z,4.27
2019-01-11T08:05:32.930Z,4.30
2019-01-11T08:08:00.174Z,5.07
2019-01-11T08:10:27.431Z,4.53
2019-01-11T08:12:54.684Z,3.60
2019-01-11T08:15:21.952Z,5.33
2019-01-11T08:17:49.244Z,4.07
2019-01-11T08:20:16.576Z,4.90
2019-01-11T08:22:43.730Z,3.83
2019-01-11T08:25:11.678Z,3.73
2019-01-11T08:27:39.125Z,4.13
2019-01-11T08:30:09.662Z,3.93
2019-01-11T08:32:36.799Z,4.10
2019-01-11T08:35:06.676Z,4.23
2019-01-11T08:37:34.089Z,4.43
2019-01-11T08:40:01.253Z,4.33
2019-01-11T08:44:55.503Z,4.07
2019-01-11T08:47:22.669Z,3.63
2019-01-11T08:49:49.899Z,3.67
2019-01-11T08:52:17.161Z,3.63
2019-01-11T08:54:44.395Z,3.60
2019-01-11T08:57:11.659Z,3.33
2019-01-11T08:59:38.925Z,3.50
2019-01-11T09:02:06.077Z,3.90
2019-01-11T09:04:33.247Z,3.67
2019-01-11T09:07:00.587Z,3.40
2019-01-11T09:09:27.771Z,3.53
2019-01-11T09:11:55.097Z,3.57
2019-01-11T09:14:40.245Z,3.90
2019-01-11T09:17:13.319Z,3.87
2019-01-11T09:19:40.594Z,3.80
2019-01-11T09:22:07.829Z,4.23
2019-01-11T09:24:35.079Z,3.70
2019-01-11T09:27:02.217Z,3.97
2019-01-11T09:29:29.457Z,3.70
2019-01-11T09:31:57.660Z,4.00
2019-01-11T09:34:25.017Z,3.60
2019-01-11T09:36:52.340Z,3.90
2019-01-11T09:39:19.615Z,4.10
2019-01-11T09:41:46.778Z,3.90
2019-01-11T09:44:14.025Z,4.00
2019-01-11T09:46:41.285Z,3.70
2019-01-11T09:49:11.939Z,4.27
2019-01-11T09:51:39.264Z,4.13
2019-01-11T09:54:06.611Z,4.13
2019-01-11T09:56:33.738Z,4.20
2019-01-11T09:59:01.026Z,4.23
2019-01-11T10:01:28.155Z,4.47
2019-01-11T10:03:55.418Z,4.47
2019-01-11T10:06:22.663Z,4.80
2019-01-11T10:08:49.860Z,4.43
2019-01-11T10:11:17.049Z,4.30
2019-01-11T10:13:44.295Z,4.40
2019-01-11T10:16:11.565Z,4.60
2019-01-11T10:18:38.691Z,4.23
2019-01-11T10:21:05.932Z,4.13
2019-01-11T10:23:33.184Z,4.27
2019-01-11T10:26:00.437Z,4.17
2019-01-11T10:28:27.586Z,4.40
2019-01-11T10:31:00.581Z,4.40
2019-01-11T10:33:24.004Z,3.97
2019-01-11T10:35:51.402Z,3.97
2019-01-11T10:38:18.640Z,4.30
2019-01-11T10:40:45.852Z,4.47
2019-01-11T10:43:13.094Z,4.00
2019-01-11T10:45:40.368Z,4.43
2019-01-11T10:48:07.618Z,4.50
2019-01-11T10:50:34.754Z,4.50
2019-01-11T10:53:01.938Z,4.57
2019-01-11T10:55:29.183Z,4.70
2019-01-11T10:57:56.239Z,4.77
2019-01-11T11:00:24.975Z,4.83
2019-01-11T11:02:52.797Z,5.03
2019-01-11T11:05:20.417Z,5.07
2019-01-11T11:07:47.912Z,4.80
2019-01-11T11:10:15.298Z,5.80
2019-01-11T11:12:42.463Z,5.17
2019-01-11T11:15:11.418Z,4.67
2019-01-11T11:17:38.735Z,4.60
2019-01-11T11:20:07.054Z,5.13
2019-01-11T11:22:34.454Z,4.90
2019-01-11T11:25:02.177Z,4.73
2019-01-11T11:27:29.454Z,4.83
2019-01-11T11:29:56.607Z,5.10
2019-01-11T11:32:42.414Z,4.77
2019-01-11T11:35:09.653Z,5.17
2019-01-11T11:37:36.906Z,5.23
2019-01-11T11:40:04.246Z,5.30
2019-01-11T11:42:31.507Z,5.50
2019-01-11T11:44:58.846Z,5.30
2019-01-11T11:47:26.093Z,5.00
2019-01-11T11:49:53.286Z,5.90
2019-01-11T11:52:20.410Z,4.87
2019-01-11T11:54:47.570Z,5.50
2019-01-11T11:57:14.720Z,6.00
2019-01-11T11:59:42.073Z,5.53
2019-01-11T12:02:09.218Z,5.13
2019-01-11T12:04:36.479Z,4.90
2019-01-11T12:07:07.623Z,4.93
2019-01-11T12:09:32.881Z,5.03
2019-01-11T12:12:00.154Z,5.10
2019-01-11T12:14:27.271Z,4.70
2019-01-11T12:16:54.416Z,4.73
2019-01-11T12:19:21.561Z,4.73
2019-01-11T12:21:48.793Z,4.90
2019-01-11T12:24:16.042Z,5.53
2019-01-11T12:26:43.323Z,4.73
2019-01-11T12:29:10.878Z,4.77
2019-01-11T12:31:38.127Z,5.03
2019-01-11T12:34:05.277Z,4.57
2019-01-11T12:36:32.613Z,5.20
2019-01-11T12:38:59.860Z,4.60
2019-01-11T12:41:27.139Z,5.20
2019-01-11T12:43:54.477Z,4.73
2019-01-11T12:46:21.729Z,5.10
2019-01-11T12:48:49.009Z,5.43
2019-01-11T12:51:16.322Z,4.87
2019-01-11T12:53:43.649Z,5.30
2019-01-11T12:56:11.282Z,5.00
2019-01-11T12:58:38.548Z,5.37
2019-01-11T13:01:05.869Z,5.50
2019-01-11T13:03:33.248Z,5.70
2019-01-11T13:06:00.534Z,5.70
2019-01-11T13:08:27.794Z,5.30
2019-01-11T13:10:55.063Z,5.73
2019-01-11T13:13:22.328Z,5.60
2019-01-11T13:15:49.610Z,5.27
2019-01-11T13:18:16.868Z,5.20
2019-01-11T13:20:44.120Z,5.67
2019-01-11T13:23:13.054Z,5.77
2019-01-11T13:25:40.322Z,6.40
2019-01-11T13:28:07.488Z,6.17
2019-01-11T13:30:35.064Z,5.53
2019-01-11T13:33:04.486Z,5.77
2019-01-11T13:35:31.762Z,6.00
2019-01-11T13:37:58.914Z,6.73
2019-01-11T13:40:26.146Z,5.90
2019-01-11T13:42:53.704Z,6.10
2019-01-11T13:45:22.419Z,5.97
2019-01-11T13:47:49.960Z,6.53
2019-01-11T13:50:44.818Z,6.17
2019-01-11T13:53:13.782Z,6.27
2019-01-11T13:55:40.917Z,6.30
2019-01-11T13:58:08.068Z,5.83
2019-01-11T14:00:35.314Z,5.70
2019-01-11T14:03:02.453Z,5.40
2019-01-11T14:05:29.736Z,6.37
2019-01-11T14:07:56.961Z,5.80
2019-01-11T14:10:24.230Z,5.53
2019-01-11T14:12:51.555Z,6.37
2019-01-11T14:15:18.811Z,6.20
2019-01-11T14:17:45.967Z,6.40
2019-01-11T14:20:13.322Z,7.00
2019-01-11T14:22:40.573Z,5.83
2019-01-11T14:25:08.343Z,6.07
2019-01-11T14:27:35.590Z,6.60
2019-01-11T14:30:03.638Z,6.00
2019-01-11T14:32:30.914Z,5.47
2019-01-11T14:34:58.210Z,5.10
2019-01-11T14:37:25.542Z,5.23
2019-01-11T14:39:52.828Z,5.10
2019-01-11T14:42:20.223Z,5.30
2019-01-11T14:44:47.458Z,4.97
2019-01-11T14:47:14.725Z,5.47
2019-01-11T14:49:41.954Z,5.37
2019-01-11T14:52:09.118Z,5.17
2019-01-11T14:54:36.356Z,5.47
2019-01-11T14:57:03.821Z,5.47
2019-01-11T14:59:31.085Z,5.83
2019-01-11T15:01:58.308Z,5.13
2019-01-11T15:04:25.557Z,5.93
2019-01-11T15:06:52.931Z,5.73
2019-01-11T15:09:20.065Z,5.83
2019-01-11T15:11:47.318Z,5.87
2019-01-11T15:14:14.655Z,6.03
2019-01-11T15:16:41.906Z,5.73
2019-01-11T15:19:14.066Z,5.87
2019-01-11T15:21:38.207Z,6.07
2019-01-11T15:24:05.453Z,6.97
2019-01-11T15:26:32.687Z,6.67
2019-01-11T15:28:59.939Z,6.10
2019-01-11T15:31:27.178Z,6.97
2019-01-11T15:33:54.439Z,6.47
2019-01-11T15:36:23.124Z,6.97
2019-01-11T15:38:50.501Z,7.40
2019-01-11T15:41:17.746Z,7.63
2019-01-11T15:43:44.989Z,7.30
2019-01-11T15:46:15.202Z,7.60
2019-01-11T15:48:48.944Z,7.47
2019-01-11T15:51:21.715Z,6.83
2019-01-11T15:53:48.975Z,7.53
2019-01-11T15:56:22.066Z,7.73
2019-01-11T15:58:49.325Z,7.13
2019-01-11T16:01:16.468Z,6.67
2019-01-11T16:03:43.741Z,6.97
2019-01-11T16:06:28.036Z,6.97
2019-01-11T16:09:55.532Z,8.93
2019-01-11T16:12:30.734Z,6.40
2019-01-11T16:15:28.145Z,6.63
2019-01-11T16:17:57.432Z,6.50
2019-01-11T16:20:24.584Z,7.00
2019-01-11T16:22:51.769Z,5.97
2019-01-11T16:25:19.072Z,6.60
2019-01-11T16:27:46.520Z,6.70
2019-01-11T16:30:13.805Z,6.60
2019-01-11T16:32:41.044Z,6.33
2019-01-11T16:35:08.219Z,6.20
2019-01-11T16:37:35.454Z,5.73
2019-01-11T16:40:03.445Z,6.10
2019-01-11T16:42:30.695Z,5.70
2019-01-11T16:44:57.896Z,5.87
2019-01-11T16:47:25.134Z,6.67
2019-01-11T16:49:52.406Z,5.83
2019-01-11T16:52:19.577Z,6.20
2019-01-11T16:54:46.845Z,6.33
2019-01-11T16:57:14.094Z,6.60
2019-01-11T16:59:41.380Z,6.40
2019-01-11T17:02:08.740Z,6.80
2019-01-11T17:04:36.002Z,6.83
2019-01-11T17:07:03.165Z,6.17
2019-01-11T17:09:30.501Z,6.90
2019-01-11T17:11:57.768Z,6.30
2019-01-11T17:14:25.020Z,6.50
2019-01-11T17:16:52.396Z,6.67
2019-01-11T17:19:19.530Z,6.60
2019-01-11T17:21:46.796Z,6.20
2019-01-11T17:24:14.031Z,6.40
2019-01-11T17:26:41.235Z,6.17
2019-01-11T17:29:08.516Z,6.10
2019-01-11T17:31:35.770Z,6.17
2019-01-11T17:34:03.156Z,6.50
2019-01-11T17:36:30.544Z,6.30
2019-01-11T17:38:57.924Z,5.13
2019-01-11T17:41:25.198Z,5.93
2019-01-11T17:43:52.541Z,5.23
2019-01-11T17:46:19.914Z,4.63
2019-01-11T17:48:47.342Z,5.53
2019-01-11T17:51:14.839Z,4.93
2019-01-11T17:53:43.593Z,5.50
2019-01-11T17:56:10.933Z,5.03
2019-01-11T17:58:38.421Z,5.30
2019-01-11T18:01:05.958Z,5.00
2019-01-11T18:03:33.495Z,4.97
2019-01-11T18:06:00.863Z,5.23
2019-01-11T18:08:28.168Z,4.53
2019-01-11T18:10:55.491Z,4.83
2019-01-11T18:13:43.761Z,4.80
2019-01-11T18:16:11.059Z,4.50
2019-01-11T18:18:40.007Z,5.83
2019-01-11T18:21:07.340Z,4.37
2019-01-11T18:23:34.697Z,4.63
2019-01-11T18:26:01.926Z,4.80
2019-01-11T18:28:29.185Z,4.60
2019-01-11T18:30:56.443Z,4.50
2019-01-11T18:33:23.719Z,4.97
2019-01-11T18:35:51.002Z,4.67
2019-01-11T18:38:18.376Z,4.40
2019-01-11T18:40:45.673Z,4.10
2019-01-11T18:43:15.059Z,4.80
2019-01-11T18:45:42.410Z,4.00
2019-01-11T18:48:09.677Z,3.87
2019-01-11T18:50:36.959Z,4.63
2019-01-11T18:53:13.499Z,4.20
2019-01-11T18:55:36.361Z,3.90
2019-01-11T18:58:06.189Z,4.30
2019-01-11T19:00:33.439Z,4.00
2019-01-11T19:03:00.707Z,4.47
2019-01-11T19:05:30.800Z,4.10
2019-01-11T19:07:58.199Z,4.00
2019-01-11T19:10:25.543Z,4.57
2019-01-11T19:12:54.561Z,4.33
2019-01-11T19:15:26.997Z,3.73
2019-01-11T19:17:54.726Z,4.03
2019-01-11T19:20:24.397Z,4.10
2019-01-11T19:22:51.987Z,4.37
2019-01-11T19:25:19.591Z,4.43
2019-01-11T19:27:47.471Z,4.23
2019-01-11T19:30:17.387Z,4.73
2019-01-11T19:32:44.736Z,4.70
2019-01-11T19:35:12.130Z,4.50
2019-01-11T19:37:42.674Z,4.50
2019-01-11T19:40:16.004Z,4.43
2019-01-11T19:42:48.037Z,5.17
2019-01-11T19:45:19.379Z,4.67
2019-01-11T19:48:47.842Z,4.90
2019-01-11T19:51:15.246Z,5.20
2019-01-11T19:53:44.643Z,5.00
2019-01-11T19:56:12.069Z,5.20
2019-01-11T19:58:39.318Z,5.33
2019-01-11T20:01:06.526Z,5.87
2019-01-11T20:03:33.965Z,5.40
2019-01-11T20:06:01.214Z,5.60
2019-01-11T20:08:28.540Z,5.93
2019-01-11T20:10:55.811Z,5.40
2019-01-11T20:13:23.114Z,5.50
2019-01-11T20:15:50.407Z,5.23
2019-01-11T20:18:17.808Z,5.63
2019-01-11T20:20:45.088Z,4.97
2019-01-11T20:23:12.360Z,5.90
2019-01-11T20:25:39.647Z,5.13
2019-01-11T20:28:06.920Z,5.80
2019-01-11T20:30:34.212Z,5.53
2019-01-11T20:33:01.496Z,5.47
2019-01-11T20:35:28.864Z,5.43
2019-01-11T20:37:56.142Z,5.27
2019-01-11T20:40:23.766Z,5.73
2019-01-11T20:42:51.044Z,5.83
2019-01-11T20:45:19.980Z,5.30
2019-01-11T20:47:47.664Z,5.43
2019-01-11T20:50:16.788Z,5.90
2019-01-11T20:52:49.404Z,5.90
2019-01-11T20:56:03.552Z,7.20
2019-01-11T20:57:59.435Z,5.63
2019-01-11T21:00:39.221Z,5.63
2019-01-11T21:03:08.432Z,5.30
2019-01-11T21:05:35.837Z,5.77
2019-01-11T21:08:05.072Z,5.27
2019-01-11T21:10:34.235Z,5.93
2019-01-11T21:13:01.604Z,5.60
2019-01-11T21:15:28.972Z,6.20
2019-01-11T21:17:56.251Z,5.87
2019-01-11T21:20:26.349Z,5.50
2019-01-11T21:22:53.885Z,5.53
2019-01-11T21:25:21.132Z,6.00
2019-01-11T21:27:48.611Z,6.50
2019-01-11T21:30:21.221Z,6.20
2019-01-11T21:32:48.606Z,6.00
2019-01-11T21:35:15.758Z,5.80
2019-01-11T21:37:44.049Z,6.63
2019-01-11T21:40:13.825Z,5.77
2019-01-11T21:42:41.179Z,5.57
2019-01-11T21:45:08.997Z,5.77
2019-01-11T21:47:36.349Z,5.90
2019-01-11T21:50:06.216Z,5.73
2019-01-11T21:52:33.555Z,5.67
2019-01-11T21:55:00.852Z,6.03
2019-01-11T21:57:28.191Z,6.07
2019-01-11T21:59:55.540Z,6.07
2019-01-11T22:02:22.915Z,6.33
2019-01-11T22:04:50.242Z,5.93
2019-01-11T22:07:17.496Z,5.90
2019-01-11T22:09:44.818Z,5.90
2019-01-11T22:12:12.090Z,6.00
2019-01-11T22:14:39.441Z,5.73
2019-01-11T22:17:06.827Z,5.93
2019-01-11T22:19:34.094Z,6.47
2019-01-11T22:22:01.259Z,5.83
2019-01-11T22:24:28.521Z,5.13
2019-01-11T22:26:55.811Z,5.80
2019-01-11T22:29:23.083Z,5.60
2019-01-11T22:31:50.369Z,5.30
2019-01-11T22:34:17.517Z,5.67
2019-01-11T22:36:44.673Z,5.03
2019-01-11T22:39:12.052Z,5.63
2019-01-11T22:41:39.424Z,5.77
2019-01-11T22:44:06.723Z,4.93
2019-01-11T22:46:33.957Z,5.43
2019-01-11T22:49:01.214Z,5.87
2019-01-11T22:51:28.468Z,5.43
2019-01-11T22:53:55.626Z,5.00
2019-01-11T22:56:22.865Z,5.00
2019-01-11T22:58:50.030Z,5.57
2019-01-11T23:02:00.196Z,5.03
2019-01-11T23:04:27.484Z,5.27
2019-01-11T23:07:33.574Z,4.77
2019-01-11T23:10:27.966Z,5.27
2019-01-11T23:13:04.275Z,5.13
2019-01-11T23:15:37.092Z,4.53
2019-01-11T23:18:12.587Z,5.30
2019-01-11T23:20:39.971Z,5.37
2019-01-11T23:23:07.244Z,4.90
2019-01-11T23:25:34.506Z,5.37
2019-01-11T23:28:01.860Z,5.17
2019-01-11T23:30:29.138Z,5.27
2019-01-11T23:32:56.296Z,5.57
2019-01-11T23:35:23.541Z,5.80
2019-01-11T23:37:50.770Z,5.23
2019-01-11T23:40:17.929Z,5.53
2019-01-11T23:42:45.164Z,5.30
2019-01-11T23:45:12.434Z,5.60
2019-01-11T23:47:39.566Z,5.90
2019-01-11T23:50:09.775Z,5.73
2019-01-11T23:52:37.013Z,5.73
2019-01-11T23:55:05.366Z,5.40
2019-01-11T23:57:32.533Z,5.63
2019-01-11T23:59:59.785Z,6.10
